Huvudsida
METAR-TAF:

METAR-TAF

Flygplatser :

Grosseto, Italien

latitud: 42-45N, longitud: 011-04E, höjd: 5 m

Aktuellt väderrapport

Denna rapport gjordes för 39 minuter sedan, klockan 22:55 UTC
Vind 6 kt från syd
Temperatur 13°C
Fuktighet 67%
Tryck 1006 hPa
Sikt 10 km eller mer
Få moln på en höjd av 3000 ft

METAR: LIRS 152255Z 17006KT 9999 FEW030 13/07 Q1006 RMK SCT SCT080 VIS MIN 9999 WIND THR03 18008KT WIND THR21 15005KT BLU

Tid: 00:34 (23:34 UTC)

Väderprognos

Denna rapport gjordes för 3 timmar och 34 minuter sedan, klockan 20:00 UTC
Prognos gäller från 15 kl. 21 UTC till 16 kl. 06 UTC
Vind 10 kt från syd
Sikt 10 km eller mer
Spridda moln på en höjd av 2500 ft
Brutna moln på en höjd av 5000 ft
Temporärt
från 15 kl. 21 UTC till 15 kl. 24 UTC
regn

TAF: LIRS 152000Z 1521/1606 17010KT 9999 SCT025 BKN050 TEMPO 1521/1524 RA

Aktuella väderrapporter och prognoser från 4000 flygplatser (METAR- och TAF-rapporter).

De tillgängliga stationerna syns som gula och röda prickar på kartan.

För musen över prickarna för att se namnen på stationerna.

Klicka sedan för att få väderrapporter och prognoser.

För att ändra kartan: Klicka på de gröna knapparna med ett svart kors på för att zooma in; den gröna knappen med ett streck på för att zooma ut; eller på de gröna pilarna för angränsande kartor.


METAR-TAF: